createdAt,value
2023-03-02T00:00:49.174Z,52.00
2023-03-02T00:01:51.553Z,47.83
2023-03-02T00:02:54.264Z,44.50
2023-03-02T00:03:59.143Z,41.67
2023-03-02T00:05:01.703Z,40.67
2023-03-02T00:06:04.386Z,37.83
2023-03-02T00:07:10.178Z,34.83
2023-03-02T00:08:14.262Z,34.00
2023-03-02T00:09:16.934Z,32.67
2023-03-02T00:10:19.441Z,32.17
2023-03-02T00:11:22.413Z,30.50
2023-03-02T00:12:27.600Z,29.50
2023-03-02T00:13:30.778Z,28.50
2023-03-02T00:14:33.187Z,27.50
2023-03-02T00:15:35.599Z,28.00
2023-03-02T00:16:38.017Z,27.00
2023-03-02T00:17:40.338Z,25.67
2023-03-02T00:18:42.658Z,23.83
2023-03-02T00:19:45.075Z,22.50
2023-03-02T00:20:47.439Z,22.83
2023-03-02T00:21:49.845Z,23.00
2023-03-02T00:22:52.197Z,23.00
2023-03-02T00:23:54.587Z,23.00
2023-03-02T00:24:56.935Z,23.00
2023-03-02T00:25:59.311Z,23.00
2023-03-02T00:27:01.727Z,22.50
2023-03-02T00:28:04.179Z,22.00
2023-03-02T00:29:06.488Z,22.00
2023-03-02T00:30:10.841Z,22.00
2023-03-02T00:31:13.208Z,22.00
2023-03-02T00:32:18.304Z,22.50
2023-03-02T00:33:21.068Z,23.00
2023-03-02T00:34:23.432Z,23.00
2023-03-02T00:35:27.190Z,23.00
2023-03-02T00:36:29.854Z,24.00
2023-03-02T00:37:32.611Z,24.17
2023-03-02T00:38:34.959Z,25.00
2023-03-02T00:39:37.340Z,25.00
2023-03-02T00:40:48.762Z,25.00
2023-03-02T00:41:51.084Z,25.00
2023-03-02T00:42:53.470Z,25.00
2023-03-02T00:43:56.354Z,24.50
2023-03-02T00:45:01.523Z,24.00
2023-03-02T00:46:15.460Z,24.00
2023-03-02T00:47:17.850Z,23.17
2023-03-02T00:48:20.322Z,23.00
2023-03-02T00:49:22.791Z,23.00
2023-03-02T00:50:25.159Z,23.00
2023-03-02T00:51:27.501Z,23.00
2023-03-02T00:52:31.062Z,23.00
2023-03-02T00:53:34.513Z,23.00
2023-03-02T00:54:36.910Z,23.00
2023-03-02T00:55:39.272Z,23.00
2023-03-02T00:56:41.630Z,22.33
2023-03-02T00:57:43.960Z,22.00
2023-03-02T00:58:46.479Z,22.00
2023-03-02T00:59:49.268Z,22.00
2023-03-02T01:00:51.621Z,21.50
2023-03-02T01:02:00.912Z,21.00
2023-03-02T01:03:03.381Z,22.00
2023-03-02T01:04:05.767Z,22.00
2023-03-02T01:05:08.449Z,22.00
2023-03-02T01:06:16.340Z,22.00
2023-03-02T01:07:26.280Z,22.00
2023-03-02T01:08:28.638Z,22.00
2023-03-02T01:09:31.468Z,22.00
2023-03-02T01:10:34.407Z,22.00
2023-03-02T01:11:36.736Z,22.00
2023-03-02T01:12:39.486Z,22.00
2023-03-02T01:13:42.069Z,22.00
2023-03-02T01:14:47.263Z,22.00
2023-03-02T01:15:49.724Z,22.33
2023-03-02T01:16:52.319Z,23.00
2023-03-02T01:17:54.969Z,23.00
2023-03-02T01:18:57.354Z,23.00
2023-03-02T01:20:00.134Z,23.00
2023-03-02T01:21:13.788Z,23.00
2023-03-02T01:22:16.131Z,23.50
2023-03-02T01:23:18.455Z,24.00
2023-03-02T01:24:20.817Z,23.83
2023-03-02T01:25:23.453Z,24.00
2023-03-02T01:26:26.513Z,24.00
2023-03-02T01:27:28.959Z,24.00
2023-03-02T01:28:31.453Z,24.33
2023-03-02T01:29:33.823Z,24.67
2023-03-02T01:30:36.177Z,25.00
2023-03-02T01:31:39.115Z,25.00
2023-03-02T01:32:41.565Z,24.17
2023-03-02T01:33:43.898Z,24.67
2023-03-02T01:34:46.262Z,25.00
2023-03-02T01:35:49.391Z,24.33
2023-03-02T01:36:51.803Z,24.00
2023-03-02T01:37:54.178Z,24.00
2023-03-02T01:38:56.604Z,24.00
2023-03-02T01:39:58.980Z,24.00
2023-03-02T01:41:01.321Z,24.00
2023-03-02T01:42:03.736Z,24.00
2023-03-02T01:43:15.352Z,24.50
2023-03-02T01:44:37.933Z,25.00
2023-03-02T01:46:18.300Z,25.00
2023-03-02T01:47:25.854Z,25.00
2023-03-02T01:48:50.675Z,25.33
2023-03-02T01:49:59.522Z,26.00
2023-03-02T01:51:03.208Z,26.00
2023-03-02T01:52:05.708Z,26.00
2023-03-02T01:53:08.621Z,26.00
2023-03-02T01:54:17.274Z,26.00
2023-03-02T01:55:26.455Z,26.00
2023-03-02T01:56:32.236Z,26.00
2023-03-02T01:57:43.757Z,26.00
2023-03-02T01:58:49.067Z,26.00
2023-03-02T01:59:56.693Z,26.00
2023-03-02T02:00:59.122Z,26.00
2023-03-02T02:02:06.629Z,25.17
2023-03-02T02:03:21.059Z,26.00
2023-03-02T02:04:26.158Z,26.00
2023-03-02T02:05:29.659Z,26.00
2023-03-02T02:06:45.812Z,25.33
2023-03-02T02:07:48.164Z,25.00
2023-03-02T02:08:51.554Z,25.00
2023-03-02T02:09:54.432Z,25.00
2023-03-02T02:10:56.903Z,25.00
2023-03-02T02:11:59.381Z,25.83
2023-03-02T02:13:01.797Z,25.50
2023-03-02T02:14:04.748Z,25.00
2023-03-02T02:15:08.125Z,25.67
2023-03-02T02:16:10.752Z,26.00
2023-03-02T02:17:13.384Z,26.00
2023-03-02T02:18:15.786Z,26.00
2023-03-02T02:19:42.646Z,26.00
2023-03-02T02:20:46.734Z,26.00
2023-03-02T02:21:49.109Z,26.00
2023-03-02T02:23:14.753Z,26.00
2023-03-02T02:24:24.881Z,25.33
2023-03-02T02:25:36.913Z,25.00
2023-03-02T02:26:46.076Z,25.33
2023-03-02T02:27:48.650Z,26.00
2023-03-02T02:28:58.040Z,26.00
2023-03-02T02:30:04.273Z,26.00
2023-03-02T02:31:12.627Z,27.00
2023-03-02T02:32:27.667Z,27.00
2023-03-02T02:33:31.473Z,27.67
2023-03-02T02:34:59.502Z,30.00
2023-03-02T02:36:19.261Z,33.00
2023-03-02T02:37:31.337Z,35.83
2023-03-02T02:38:34.967Z,37.50
2023-03-02T02:39:43.942Z,39.33
2023-03-02T02:40:50.495Z,41.67
2023-03-02T02:41:56.177Z,42.00
2023-03-02T02:42:58.888Z,42.17
2023-03-02T02:44:01.252Z,43.67
2023-03-02T02:45:07.336Z,46.00
2023-03-02T02:46:11.976Z,47.00
2023-03-02T02:47:23.669Z,47.00
2023-03-02T02:48:31.145Z,46.67
2023-03-02T02:49:39.438Z,47.00
2023-03-02T02:50:42.745Z,47.50
2023-03-02T02:51:45.098Z,49.00
2023-03-02T02:52:54.076Z,52.00
2023-03-02T02:53:59.966Z,54.00
2023-03-02T02:55:23.634Z,56.00
2023-03-02T02:56:52.551Z,56.50
2023-03-02T02:57:58.903Z,57.33
2023-03-02T02:59:06.125Z,58.17
2023-03-02T03:00:19.526Z,58.67
2023-03-02T03:01:26.910Z,58.00
2023-03-02T03:02:31.048Z,57.50
2023-03-02T03:03:36.772Z,57.00
2023-03-02T03:04:39.192Z,57.00
2023-03-02T03:05:41.614Z,57.00
2023-03-02T03:07:01.442Z,57.00
2023-03-02T03:08:10.871Z,57.00
2023-03-02T03:09:13.321Z,57.00
2023-03-02T03:10:40.171Z,57.00
2023-03-02T03:11:45.641Z,58.33
2023-03-02T03:12:48.169Z,90.83
2023-03-02T03:14:08.585Z,113.50
2023-03-02T03:15:11.963Z,130.83
2023-03-02T03:16:16.029Z,169.00
2023-03-02T03:17:18.943Z,227.00
2023-03-02T03:18:24.476Z,259.50
2023-03-02T03:19:29.624Z,241.00
2023-03-02T03:20:32.101Z,213.00
2023-03-02T03:21:34.491Z,202.67
2023-03-02T03:22:38.452Z,199.17
2023-03-02T03:23:40.869Z,176.33
2023-03-02T03:24:45.133Z,158.17
2023-03-02T03:25:47.540Z,215.33
2023-03-02T03:26:50.115Z,286.50
2023-03-02T03:27:52.455Z,269.50
2023-03-02T03:28:57.389Z,274.83
2023-03-02T03:30:01.910Z,228.83
2023-03-02T03:31:04.573Z,209.17
2023-03-02T03:32:07.169Z,190.50
2023-03-02T03:33:14.387Z,178.17
2023-03-02T03:34:17.279Z,162.17
2023-03-02T03:35:19.742Z,150.00
2023-03-02T03:36:22.620Z,136.50
2023-03-02T03:37:25.072Z,129.50
2023-03-02T03:38:27.684Z,119.00
2023-03-02T03:39:31.150Z,110.83
2023-03-02T03:40:36.269Z,104.17
2023-03-02T03:41:38.728Z,101.83
2023-03-02T03:42:41.245Z,104.17
2023-03-02T03:43:43.590Z,100.17
2023-03-02T03:44:46.207Z,99.17
2023-03-02T03:45:48.709Z,95.33
2023-03-02T03:46:51.237Z,94.83
2023-03-02T03:47:53.610Z,91.67
2023-03-02T03:48:56.157Z,89.33
2023-03-02T03:49:58.539Z,85.67
2023-03-02T03:51:00.957Z,83.67
2023-03-02T03:52:03.872Z,83.33
2023-03-02T03:53:06.258Z,79.33
2023-03-02T03:54:09.897Z,76.33
2023-03-02T03:55:12.596Z,71.33
2023-03-02T03:56:14.929Z,67.33
2023-03-02T03:57:17.291Z,61.83
2023-03-02T03:58:22.755Z,61.17
2023-03-02T03:59:25.908Z,60.50
2023-03-02T04:00:28.265Z,57.83
2023-03-02T04:01:35.070Z,56.00
2023-03-02T04:02:38.048Z,54.00
2023-03-02T04:03:40.517Z,54.17
2023-03-02T04:04:43.305Z,54.33
2023-03-02T04:05:46.437Z,54.50
2023-03-02T04:06:49.336Z,53.50
2023-03-02T04:07:51.785Z,53.33
2023-03-02T04:08:54.149Z,54.67
2023-03-02T04:10:03.853Z,56.33
2023-03-02T04:11:06.258Z,57.33
2023-03-02T04:12:09.645Z,58.50
2023-03-02T04:13:12.675Z,59.17
2023-03-02T04:14:16.108Z,60.00
2023-03-02T04:15:18.506Z,59.83
2023-03-02T04:16:20.928Z,59.83
2023-03-02T04:17:23.324Z,59.67
2023-03-02T04:18:25.728Z,59.50
2023-03-02T04:19:28.058Z,59.00
2023-03-02T04:20:31.653Z,59.00
2023-03-02T04:21:34.018Z,59.00
2023-03-02T04:22:36.393Z,59.00
2023-03-02T04:23:38.781Z,59.00
2023-03-02T04:24:41.151Z,59.00
2023-03-02T04:25:43.550Z,59.00
2023-03-02T04:26:46.294Z,58.50
2023-03-02T04:27:50.403Z,58.33
2023-03-02T04:28:52.866Z,58.00
2023-03-02T04:29:55.199Z,57.50
2023-03-02T04:30:57.911Z,57.50
2023-03-02T04:32:00.955Z,58.00
2023-03-02T04:33:03.367Z,58.00
2023-03-02T04:34:05.946Z,58.67
2023-03-02T04:35:08.639Z,59.00
2023-03-02T04:36:11.006Z,59.00
2023-03-02T04:37:13.441Z,59.00
2023-03-02T04:38:15.769Z,59.00
2023-03-02T04:39:18.926Z,59.00
2023-03-02T04:40:21.499Z,59.00
2023-03-02T04:41:23.843Z,59.00
2023-03-02T04:42:26.224Z,59.00
2023-03-02T04:43:28.697Z,59.00
2023-03-02T04:44:31.063Z,59.17
2023-03-02T04:45:33.491Z,61.17
2023-03-02T04:46:36.144Z,66.83
2023-03-02T04:47:38.899Z,84.83
2023-03-02T04:48:41.271Z,121.67
2023-03-02T04:49:43.854Z,130.17
2023-03-02T04:50:46.435Z,124.83
2023-03-02T04:51:49.732Z,126.17
2023-03-02T04:52:52.109Z,113.17
2023-03-02T04:53:57.694Z,105.67
2023-03-02T04:55:00.131Z,102.83
2023-03-02T04:56:02.532Z,100.00
2023-03-02T04:57:04.857Z,98.33
2023-03-02T04:58:07.975Z,97.00
2023-03-02T04:59:10.460Z,93.83
2023-03-02T05:00:13.757Z,92.00
2023-03-02T05:01:17.380Z,92.00
2023-03-02T05:02:19.781Z,92.00
2023-03-02T05:03:22.251Z,92.00
2023-03-02T05:04:25.736Z,92.00
2023-03-02T05:05:28.734Z,92.00
2023-03-02T05:06:31.357Z,92.17
2023-03-02T05:07:33.971Z,94.50
2023-03-02T05:08:36.781Z,99.33
2023-03-02T05:09:39.172Z,105.50
2023-03-02T05:10:41.590Z,109.17
2023-03-02T05:11:44.003Z,115.17
2023-03-02T05:12:57.895Z,118.33
2023-03-02T05:14:03.075Z,120.17
2023-03-02T05:15:05.808Z,116.67
2023-03-02T05:16:08.299Z,115.00
2023-03-02T05:17:10.769Z,118.67
2023-03-02T05:18:13.258Z,122.33
2023-03-02T05:19:16.297Z,124.67
2023-03-02T05:20:21.203Z,128.83
2023-03-02T05:21:23.697Z,130.67
2023-03-02T05:22:26.025Z,132.00
2023-03-02T05:23:31.588Z,137.67
2023-03-02T05:24:34.070Z,144.50
2023-03-02T05:25:37.785Z,153.50
2023-03-02T05:26:40.326Z,156.17
2023-03-02T05:27:42.675Z,151.83
2023-03-02T05:28:45.190Z,149.67
2023-03-02T05:29:47.576Z,145.83
2023-03-02T05:30:50.599Z,140.17
2023-03-02T05:31:53.142Z,133.17
2023-03-02T05:32:55.640Z,133.33
2023-03-02T05:33:58.418Z,131.50
2023-03-02T05:35:00.750Z,126.33
2023-03-02T05:36:03.280Z,120.50
2023-03-02T05:37:05.673Z,120.33
2023-03-02T05:38:08.526Z,147.67
2023-03-02T05:39:11.273Z,173.17
2023-03-02T05:40:17.206Z,208.00
2023-03-02T05:41:19.642Z,221.33
2023-03-02T05:42:22.024Z,227.67
2023-03-02T05:43:24.382Z,224.33
2023-03-02T05:44:26.752Z,210.67
2023-03-02T05:45:32.784Z,201.17
2023-03-02T05:46:37.733Z,203.33
2023-03-02T05:47:40.327Z,218.17
2023-03-02T05:48:43.044Z,226.67
2023-03-02T05:49:45.374Z,220.50
2023-03-02T05:50:47.763Z,228.17
2023-03-02T05:51:50.149Z,244.33
2023-03-02T05:52:52.590Z,265.83
2023-03-02T05:53:54.989Z,279.83
2023-03-02T05:54:59.385Z,284.33
2023-03-02T05:56:02.064Z,284.17
2023-03-02T05:57:04.427Z,262.67
2023-03-02T05:58:09.203Z,251.00
2023-03-02T05:59:11.717Z,237.67
2023-03-02T06:00:14.548Z,216.33
2023-03-02T06:01:17.013Z,205.33
2023-03-02T06:02:19.688Z,203.67
2023-03-02T06:03:22.173Z,198.00
2023-03-02T06:04:25.453Z,192.83
2023-03-02T06:05:27.841Z,189.83
2023-03-02T06:06:31.736Z,188.00
2023-03-02T06:07:35.377Z,184.67
2023-03-02T06:08:41.067Z,175.67
2023-03-02T06:09:43.480Z,169.67
2023-03-02T06:10:46.082Z,160.67
2023-03-02T06:11:48.881Z,161.17
2023-03-02T06:12:51.638Z,160.67
2023-03-02T06:13:54.073Z,169.67
2023-03-02T06:14:56.475Z,174.33
2023-03-02T06:15:58.873Z,176.33
2023-03-02T06:17:01.695Z,177.50
2023-03-02T06:18:04.156Z,180.83
2023-03-02T06:19:06.702Z,196.33
2023-03-02T06:20:11.451Z,206.67
2023-03-02T06:21:14.354Z,210.50
2023-03-02T06:22:16.721Z,236.50
2023-03-02T06:23:19.177Z,235.50
2023-03-02T06:24:21.588Z,241.50
2023-03-02T06:25:25.017Z,238.50
2023-03-02T06:26:27.381Z,231.17
2023-03-02T06:27:29.756Z,225.83
2023-03-02T06:28:34.273Z,220.33
2023-03-02T06:29:42.831Z,198.83
2023-03-02T06:30:45.613Z,177.83
2023-03-02T06:31:47.988Z,166.17
2023-03-02T06:32:50.513Z,161.00
2023-03-02T06:33:52.985Z,157.33
2023-03-02T06:34:55.427Z,150.50
2023-03-02T06:35:58.208Z,148.67
2023-03-02T06:37:00.677Z,143.67
2023-03-02T06:38:03.254Z,136.33
2023-03-02T06:39:07.261Z,138.00
2023-03-02T06:40:11.340Z,136.83
2023-03-02T06:41:13.811Z,134.17
2023-03-02T06:42:16.224Z,133.83
2023-03-02T06:43:18.625Z,131.83
2023-03-02T06:44:21.126Z,137.00
2023-03-02T06:45:23.514Z,139.67
2023-03-02T06:46:25.931Z,142.17
2023-03-02T06:47:28.347Z,144.83
2023-03-02T06:48:30.695Z,147.67
2023-03-02T06:49:33.504Z,147.50
2023-03-02T06:50:36.077Z,143.67
2023-03-02T06:51:39.256Z,134.50
2023-03-02T06:52:41.672Z,136.00
2023-03-02T06:53:44.323Z,140.33
2023-03-02T06:54:46.794Z,140.67
2023-03-02T06:55:50.236Z,139.67
2023-03-02T06:56:52.590Z,140.50
2023-03-02T06:57:55.007Z,143.67
2023-03-02T06:58:57.371Z,145.17
2023-03-02T07:00:26.579Z,184.17
2023-03-02T07:01:33.252Z,205.67
2023-03-02T07:02:36.643Z,221.17
2023-03-02T07:03:39.097Z,219.83
2023-03-02T07:04:41.514Z,200.67
2023-03-02T07:05:46.069Z,190.33
2023-03-02T07:06:48.725Z,184.33
2023-03-02T07:07:51.433Z,170.50
2023-03-02T07:08:53.881Z,149.17
2023-03-02T07:09:56.250Z,140.67
2023-03-02T07:10:58.564Z,138.83
2023-03-02T07:12:01.037Z,142.17
2023-03-02T07:13:03.501Z,146.83
2023-03-02T07:14:06.031Z,147.50
2023-03-02T07:15:11.278Z,146.33
2023-03-02T07:16:15.003Z,147.50
2023-03-02T07:17:17.531Z,147.67
2023-03-02T07:18:19.927Z,146.50
2023-03-02T07:19:22.370Z,144.50
2023-03-02T07:20:24.778Z,141.50
2023-03-02T07:21:27.139Z,135.33
2023-03-02T07:22:29.522Z,136.17
2023-03-02T07:23:32.607Z,135.00
2023-03-02T07:24:35.065Z,122.83
2023-03-02T07:25:37.441Z,116.17
2023-03-02T07:26:39.875Z,114.50
2023-03-02T07:27:42.687Z,99.83
2023-03-02T07:28:45.196Z,99.33
2023-03-02T07:29:47.672Z,96.17
2023-03-02T07:30:51.258Z,97.00
2023-03-02T07:31:57.258Z,84.50
2023-03-02T07:32:59.803Z,75.17
2023-03-02T07:34:02.204Z,69.50
2023-03-02T07:35:05.227Z,68.67
2023-03-02T07:36:08.512Z,67.17
2023-03-02T07:37:10.946Z,68.33
2023-03-02T07:38:13.329Z,68.17
2023-03-02T07:39:15.654Z,65.67
2023-03-02T07:40:18.450Z,63.83
2023-03-02T07:41:22.993Z,64.00
2023-03-02T07:42:25.458Z,67.83
2023-03-02T07:43:28.908Z,70.33
2023-03-02T07:44:31.575Z,72.00
2023-03-02T07:45:33.950Z,72.00
2023-03-02T07:46:36.444Z,71.33
2023-03-02T07:47:38.844Z,70.83
2023-03-02T07:48:41.236Z,71.00
2023-03-02T07:49:43.558Z,71.00
2023-03-02T07:50:46.537Z,71.00
2023-03-02T07:51:48.942Z,70.17
2023-03-02T07:52:51.456Z,70.00
2023-03-02T07:53:53.896Z,71.17
2023-03-02T07:54:56.606Z,74.67
2023-03-02T07:56:00.898Z,75.50
2023-03-02T07:57:03.520Z,76.00
2023-03-02T07:58:06.131Z,73.83
2023-03-02T07:59:08.622Z,70.00
2023-03-02T08:00:11.594Z,67.17
2023-03-02T08:01:14.031Z,62.50
2023-03-02T08:02:20.337Z,56.17
2023-03-02T08:03:22.766Z,50.67
2023-03-02T08:04:25.852Z,47.17
2023-03-02T08:05:28.239Z,44.50
2023-03-02T08:06:30.696Z,43.17
2023-03-02T08:07:33.108Z,43.83
2023-03-02T08:08:36.331Z,42.83
2023-03-02T08:09:40.014Z,39.50
2023-03-02T08:10:42.455Z,34.17
2023-03-02T08:11:45.132Z,31.67
2023-03-02T08:12:47.538Z,28.50
2023-03-02T08:13:49.950Z,26.67
2023-03-02T08:14:52.386Z,26.33
2023-03-02T08:16:00.661Z,27.33
2023-03-02T08:17:05.569Z,28.00
2023-03-02T08:18:08.054Z,28.00
2023-03-02T08:19:10.627Z,28.00
2023-03-02T08:20:13.085Z,28.00
2023-03-02T08:21:17.962Z,28.00
2023-03-02T08:22:20.381Z,29.00
2023-03-02T08:23:22.961Z,29.00
2023-03-02T08:24:25.346Z,28.33
2023-03-02T08:25:27.735Z,28.00
2023-03-02T08:26:30.239Z,28.00
2023-03-02T08:27:32.651Z,28.33
2023-03-02T08:28:35.043Z,29.00
2023-03-02T08:29:37.551Z,29.00
2023-03-02T08:30:39.976Z,29.00
2023-03-02T08:31:42.410Z,29.00
2023-03-02T08:32:44.986Z,29.50
2023-03-02T08:33:47.388Z,30.00
2023-03-02T08:34:51.892Z,30.00
2023-03-02T08:36:01.712Z,30.00
2023-03-02T08:37:04.248Z,30.00
2023-03-02T08:38:06.627Z,30.50
2023-03-02T08:39:09.018Z,31.00
2023-03-02T08:40:11.853Z,31.17
2023-03-02T08:41:17.246Z,33.50
2023-03-02T08:42:19.700Z,35.00
2023-03-02T08:43:23.577Z,35.00
2023-03-02T08:44:26.161Z,36.00
2023-03-02T08:45:28.594Z,36.33
2023-03-02T08:46:31.684Z,37.00
2023-03-02T08:47:34.120Z,37.33
2023-03-02T08:48:36.680Z,38.50
2023-03-02T08:49:39.074Z,40.50
2023-03-02T08:50:41.454Z,42.50
2023-03-02T08:51:45.524Z,43.50
2023-03-02T08:52:48.005Z,43.00
2023-03-02T08:53:55.152Z,43.00
2023-03-02T08:54:57.527Z,42.17
2023-03-02T08:55:59.947Z,42.00
2023-03-02T08:57:03.231Z,42.00
2023-03-02T08:58:05.582Z,42.00
2023-03-02T08:59:12.538Z,42.00
2023-03-02T09:00:16.406Z,42.67
2023-03-02T09:01:24.207Z,43.00
2023-03-02T09:02:26.730Z,43.67
2023-03-02T09:03:29.145Z,45.00
2023-03-02T09:04:31.609Z,45.83
2023-03-02T09:05:34.298Z,47.00
2023-03-02T09:06:41.891Z,48.17
2023-03-02T09:07:44.763Z,50.83
2023-03-02T09:08:48.303Z,52.00
2023-03-02T09:09:50.741Z,52.00
2023-03-02T09:10:53.219Z,52.50
2023-03-02T09:11:55.735Z,53.17
2023-03-02T09:12:58.161Z,54.83
2023-03-02T09:14:01.164Z,56.17
2023-03-02T09:15:03.760Z,60.50
2023-03-02T09:16:06.927Z,62.00
2023-03-02T09:17:09.377Z,66.33
2023-03-02T09:18:11.858Z,72.17
2023-03-02T09:19:14.224Z,67.83
2023-03-02T09:20:16.799Z,65.83
2023-03-02T09:21:19.266Z,64.67
2023-03-02T09:22:21.674Z,64.00
2023-03-02T09:23:25.372Z,64.67
2023-03-02T09:24:27.759Z,67.00
2023-03-02T09:25:30.268Z,67.00
2023-03-02T09:26:32.677Z,67.00
2023-03-02T09:27:35.049Z,67.00
2023-03-02T09:28:38.496Z,67.00
2023-03-02T09:29:41.018Z,66.67
2023-03-02T09:30:49.068Z,65.83
2023-03-02T09:31:51.513Z,65.00
2023-03-02T09:32:54.017Z,64.00
2023-03-02T09:33:57.218Z,63.00
2023-03-02T09:34:59.582Z,63.17
2023-03-02T09:36:11.607Z,63.00
2023-03-02T09:37:14.062Z,62.33
2023-03-02T09:38:18.444Z,61.33
2023-03-02T09:39:20.845Z,61.00
2023-03-02T09:40:25.677Z,60.00
2023-03-02T09:41:48.818Z,60.00
2023-03-02T09:43:12.926Z,60.00
2023-03-02T09:44:36.504Z,60.00
2023-03-02T09:46:16.784Z,60.00
2023-03-02T09:47:35.586Z,60.00
2023-03-02T09:48:48.368Z,60.33
2023-03-02T09:49:59.626Z,61.83
2023-03-02T09:51:07.764Z,62.67
2023-03-02T09:52:29.566Z,63.00
2023-03-02T09:53:40.097Z,63.67
2023-03-02T09:54:42.918Z,64.17
2023-03-02T09:55:47.905Z,67.50
2023-03-02T09:56:54.504Z,73.83
2023-03-02T09:57:57.667Z,73.33
2023-03-02T09:59:18.454Z,72.33
2023-03-02T10:00:37.702Z,72.00
2023-03-02T10:01:49.206Z,72.00
2023-03-02T10:03:05.095Z,72.83
2023-03-02T10:04:22.127Z,75.00
2023-03-02T10:05:28.406Z,75.33
2023-03-02T10:06:31.296Z,75.83
2023-03-02T10:07:36.113Z,75.17
2023-03-02T10:08:40.889Z,74.67
2023-03-02T10:09:43.556Z,74.00
2023-03-02T10:11:08.592Z,74.00
2023-03-02T10:12:21.957Z,74.17
2023-03-02T10:13:48.531Z,75.00
2023-03-02T10:14:59.549Z,74.83
2023-03-02T10:16:08.743Z,74.00
2023-03-02T10:17:54.327Z,73.33
2023-03-02T10:19:32.545Z,70.00
2023-03-02T10:20:40.718Z,70.50
2023-03-02T10:21:48.289Z,71.17
2023-03-02T10:22:54.784Z,72.67
2023-03-02T10:24:14.026Z,73.00
2023-03-02T10:25:44.903Z,72.83
2023-03-02T10:26:51.267Z,72.00
2023-03-02T10:28:16.199Z,72.00
2023-03-02T10:29:33.125Z,71.17
2023-03-02T10:30:37.889Z,71.00
2023-03-02T10:31:41.252Z,71.00
2023-03-02T10:32:48.417Z,71.50
2023-03-02T10:33:50.818Z,71.50
2023-03-02T10:34:56.045Z,71.00
2023-03-02T10:36:01.136Z,71.00
2023-03-02T10:37:21.998Z,71.83
2023-03-02T10:38:25.279Z,74.33
2023-03-02T10:39:27.691Z,74.33
2023-03-02T10:41:09.406Z,74.83
2023-03-02T10:42:17.236Z,74.00
2023-03-02T10:43:42.398Z,73.00
2023-03-02T10:44:51.318Z,72.67
2023-03-02T10:46:05.418Z,72.00
2023-03-02T10:47:09.872Z,72.00
2023-03-02T10:48:14.400Z,72.00
2023-03-02T10:49:39.471Z,72.00
2023-03-02T10:50:43.573Z,72.00
2023-03-02T10:52:15.060Z,71.17
2023-03-02T10:53:18.641Z,71.00
2023-03-02T10:54:22.025Z,71.00
2023-03-02T10:55:25.157Z,71.17
2023-03-02T10:56:27.577Z,71.50
2023-03-02T10:57:38.606Z,69.83
2023-03-02T10:58:41.076Z,67.50
2023-03-02T10:59:43.760Z,65.33
2023-03-02T11:01:05.010Z,64.33
2023-03-02T11:02:25.274Z,62.17
2023-03-02T11:03:29.030Z,62.00
2023-03-02T11:04:31.843Z,63.00
2023-03-02T11:05:41.444Z,62.83
2023-03-02T11:06:43.930Z,61.17
2023-03-02T11:07:57.792Z,61.00
2023-03-02T11:09:01.106Z,61.00
2023-03-02T11:10:18.655Z,60.50
2023-03-02T11:11:23.368Z,59.67
2023-03-02T11:12:26.320Z,57.83
2023-03-02T11:13:40.285Z,56.17
2023-03-02T11:14:43.420Z,56.00
2023-03-02T11:15:48.323Z,56.00
2023-03-02T11:16:52.944Z,56.17
2023-03-02T11:18:06.227Z,56.67
2023-03-02T11:19:31.843Z,57.00
2023-03-02T11:20:39.067Z,58.83
2023-03-02T11:21:47.016Z,59.00
2023-03-02T11:23:15.451Z,58.33
2023-03-02T11:24:46.563Z,57.00
2023-03-02T11:25:59.230Z,59.67
2023-03-02T11:27:14.166Z,60.00
2023-03-02T11:28:43.665Z,65.33
2023-03-02T11:29:54.715Z,89.83
2023-03-02T11:30:58.170Z,79.50
2023-03-02T11:32:09.052Z,77.50
2023-03-02T11:33:27.060Z,75.50
2023-03-02T11:34:57.289Z,73.83
2023-03-02T11:36:12.418Z,69.50
2023-03-02T11:37:17.352Z,66.00
2023-03-02T11:38:29.097Z,64.83
2023-03-02T11:39:53.326Z,63.17
2023-03-02T11:41:19.422Z,63.00
2023-03-02T11:42:27.146Z,61.33
2023-03-02T11:43:29.674Z,58.17
2023-03-02T11:44:32.498Z,57.00
2023-03-02T11:45:42.814Z,57.00
2023-03-02T11:46:59.322Z,57.00
2023-03-02T11:48:25.757Z,55.67
2023-03-02T11:49:38.455Z,54.50
2023-03-02T11:50:56.862Z,55.00
2023-03-02T11:52:00.707Z,56.67
2023-03-02T11:53:10.817Z,59.33
2023-03-02T11:54:39.779Z,60.83
2023-03-02T11:55:48.569Z,61.00
2023-03-02T11:56:51.085Z,61.00
2023-03-02T11:57:56.459Z,61.00
2023-03-02T11:59:05.135Z,61.00
2023-03-02T12:00:27.146Z,60.17
2023-03-02T12:01:30.125Z,60.00
2023-03-02T12:02:32.592Z,59.17
2023-03-02T12:03:35.227Z,59.50
2023-03-02T12:04:39.508Z,60.00
2023-03-02T12:05:44.858Z,61.83
2023-03-02T12:06:47.299Z,63.50
2023-03-02T12:08:08.300Z,64.50
2023-03-02T12:09:22.519Z,66.00
2023-03-02T12:10:33.114Z,67.33
2023-03-02T12:11:38.995Z,69.33
2023-03-02T12:12:47.228Z,71.33
2023-03-02T12:13:49.557Z,76.33
2023-03-02T12:14:52.910Z,78.00
2023-03-02T12:15:56.515Z,76.83
2023-03-02T12:17:26.319Z,76.00
2023-03-02T12:18:42.373Z,75.00
2023-03-02T12:19:45.349Z,73.67
2023-03-02T12:21:05.904Z,71.50
2023-03-02T12:22:10.712Z,70.00
2023-03-02T12:23:24.254Z,69.50
2023-03-02T12:24:29.300Z,68.33
2023-03-02T12:25:41.524Z,66.50
2023-03-02T12:26:44.011Z,66.33
2023-03-02T12:27:48.897Z,67.00
2023-03-02T12:29:23.258Z,67.00
2023-03-02T12:30:27.943Z,68.00
2023-03-02T12:31:54.349Z,67.67
2023-03-02T12:33:04.956Z,67.00
2023-03-02T12:34:43.302Z,66.67
2023-03-02T12:35:47.608Z,64.33
2023-03-02T12:36:54.899Z,62.17
2023-03-02T12:38:01.072Z,61.00
2023-03-02T12:39:12.661Z,61.00
2023-03-02T12:40:46.246Z,61.67
2023-03-02T12:42:17.594Z,63.33
2023-03-02T12:43:27.813Z,68.50
2023-03-02T12:44:51.886Z,78.50
2023-03-02T12:46:28.998Z,85.50
2023-03-02T12:47:32.418Z,82.83
2023-03-02T12:48:45.777Z,82.00
2023-03-02T12:49:54.039Z,82.50
2023-03-02T12:51:01.914Z,82.50
2023-03-02T12:52:39.045Z,80.67
2023-03-02T12:53:43.841Z,79.50
2023-03-02T12:54:46.324Z,85.00
2023-03-02T12:55:48.899Z,85.67
2023-03-02T12:57:22.274Z,84.83
2023-03-02T12:58:27.855Z,83.00
2023-03-02T12:59:30.398Z,82.67
2023-03-02T13:00:34.969Z,79.17
2023-03-02T13:01:38.314Z,75.67
2023-03-02T13:02:47.338Z,75.33
2023-03-02T13:03:50.015Z,76.33
2023-03-02T13:05:01.145Z,79.17
2023-03-02T13:06:11.402Z,80.33
2023-03-02T13:07:18.544Z,80.00
2023-03-02T13:08:25.620Z,76.67
2023-03-02T13:09:29.396Z,70.67
2023-03-02T13:10:38.481Z,66.67
2023-03-02T13:11:44.253Z,65.00
2023-03-02T13:12:47.464Z,66.50
2023-03-02T13:13:50.922Z,69.33
2023-03-02T13:14:57.412Z,70.83
2023-03-02T13:16:05.421Z,70.00
2023-03-02T13:17:28.002Z,70.33
2023-03-02T13:18:40.946Z,70.67
2023-03-02T13:19:49.204Z,68.33
2023-03-02T13:20:55.560Z,69.67
2023-03-02T13:21:59.523Z,84.00
2023-03-02T13:23:03.616Z,85.67
2023-03-02T13:24:32.893Z,83.67
2023-03-02T13:32:19.634Z,61.67
2023-03-02T13:33:24.304Z,62.33
2023-03-02T13:34:32.943Z,63.50
2023-03-02T13:35:56.276Z,64.83
2023-03-02T13:37:19.409Z,66.00
2023-03-02T13:38:27.636Z,66.83
2023-03-02T13:39:31.854Z,69.17
2023-03-02T13:40:40.140Z,72.00
2023-03-02T13:41:52.973Z,75.67
2023-03-02T13:42:55.393Z,80.00
2023-03-02T13:43:58.798Z,79.17
2023-03-02T13:45:31.010Z,78.67
2023-03-02T13:46:36.928Z,78.00
2023-03-02T13:47:43.948Z,78.00
2023-03-02T13:49:10.651Z,78.00
2023-03-02T13:50:22.780Z,79.17
2023-03-02T13:51:27.735Z,80.00
2023-03-02T13:52:31.185Z,80.00
2023-03-02T13:53:38.206Z,81.00
2023-03-02T13:54:43.297Z,80.50
2023-03-02T13:55:45.946Z,84.83
2023-03-02T13:56:51.976Z,107.33
2023-03-02T13:57:56.170Z,102.17
2023-03-02T13:58:58.519Z,96.83
2023-03-02T14:00:00.958Z,94.67
2023-03-02T14:01:04.983Z,85.67
2023-03-02T14:02:39.548Z,77.50
2023-03-02T14:03:41.975Z,74.00
2023-03-02T14:04:44.425Z,72.17
2023-03-02T14:05:46.889Z,71.33
2023-03-02T14:06:51.063Z,69.83
2023-03-02T14:07:53.448Z,68.33
2023-03-02T14:08:55.952Z,68.33
2023-03-02T14:09:58.379Z,66.50
2023-03-02T14:11:01.445Z,64.67
2023-03-02T14:26:34.266Z,60.00
2023-03-02T14:27:37.930Z,60.00
2023-03-02T14:28:40.786Z,61.50